sensor_id;sensor_type;location;lat;lon;timestamp;P1;durP1;ratioP1;P2;durP2;ratioP2
59659;SDS011;45534;52.690;6.268;2022-10-23T00:03:42;11.38;;;7.13;;
59659;SDS011;45534;52.690;6.268;2022-10-23T00:06:08;10.98;;;6.47;;
59659;SDS011;45534;52.690;6.268;2022-10-23T00:08:34;11.00;;;8.57;;
59659;SDS011;45534;52.690;6.268;2022-10-23T00:11:00;14.40;;;8.50;;
59659;SDS011;45534;52.690;6.268;2022-10-23T00:13:31;15.50;;;7.32;;
59659;SDS011;45534;52.690;6.268;2022-10-23T00:15:56;9.60;;;7.18;;
59659;SDS011;45534;52.690;6.268;2022-10-23T00:18:22;16.38;;;8.25;;
59659;SDS011;45534;52.690;6.268;2022-10-23T00:20:48;14.88;;;7.28;;
59659;SDS011;45534;52.690;6.268;2022-10-23T00:23:15;14.45;;;6.60;;
59659;SDS011;45534;52.690;6.268;2022-10-23T00:25:40;12.00;;;7.38;;
59659;SDS011;45534;52.690;6.268;2022-10-23T00:28:06;9.48;;;6.13;;
59659;SDS011;45534;52.690;6.268;2022-10-23T00:30:32;13.75;;;6.75;;
59659;SDS011;45534;52.690;6.268;2022-10-23T00:32:57;12.15;;;6.28;;
59659;SDS011;45534;52.690;6.268;2022-10-23T00:35:23;9.93;;;7.03;;
59659;SDS011;45534;52.690;6.268;2022-10-23T00:37:49;11.75;;;7.18;;
59659;SDS011;45534;52.690;6.268;2022-10-23T00:40:14;10.23;;;5.70;;
59659;SDS011;45534;52.690;6.268;2022-10-23T00:42:40;12.10;;;8.20;;
59659;SDS011;45534;52.690;6.268;2022-10-23T00:50:03;16.45;;;8.30;;
59659;SDS011;45534;52.690;6.268;2022-10-23T00:52:30;16.55;;;7.40;;
59659;SDS011;45534;52.690;6.268;2022-10-23T00:54:57;12.20;;;7.55;;
59659;SDS011;45534;52.690;6.268;2022-10-23T00:57:23;23.02;;;8.70;;
59659;SDS011;45534;52.690;6.268;2022-10-23T00:59:49;10.63;;;5.80;;
59659;SDS011;45534;52.690;6.268;2022-10-23T01:02:15;20.10;;;8.55;;
59659;SDS011;45534;52.690;6.268;2022-10-23T01:04:40;16.63;;;7.95;;
59659;SDS011;45534;52.690;6.268;2022-10-23T01:18:06;8.60;;;6.68;;
59659;SDS011;45534;52.690;6.268;2022-10-23T01:20:39;13.52;;;7.85;;
59659;SDS011;45534;52.690;6.268;2022-10-23T01:26:06;16.98;;;8.88;;
59659;SDS011;45534;52.690;6.268;2022-10-23T01:31:18;9.00;;;6.95;;
59659;SDS011;45534;52.690;6.268;2022-10-23T01:33:54;14.05;;;7.30;;
59659;SDS011;45534;52.690;6.268;2022-10-23T01:36:25;10.55;;;6.65;;
59659;SDS011;45534;52.690;6.268;2022-10-23T01:38:57;24.85;;;7.90;;
59659;SDS011;45534;52.690;6.268;2022-10-23T01:46:32;12.32;;;7.68;;
59659;SDS011;45534;52.690;6.268;2022-10-23T01:49:01;17.08;;;9.50;;
59659;SDS011;45534;52.690;6.268;2022-10-23T01:51:30;14.73;;;8.57;;
59659;SDS011;45534;52.690;6.268;2022-10-23T01:53:58;16.33;;;8.35;;
59659;SDS011;45534;52.690;6.268;2022-10-23T01:56:26;10.93;;;7.72;;
59659;SDS011;45534;52.690;6.268;2022-10-23T01:58:56;15.88;;;7.38;;
59659;SDS011;45534;52.690;6.268;2022-10-23T02:01:24;13.57;;;9.10;;
59659;SDS011;45534;52.690;6.268;2022-10-23T02:03:53;12.90;;;8.55;;
59659;SDS011;45534;52.690;6.268;2022-10-23T02:06:21;14.75;;;7.97;;
59659;SDS011;45534;52.690;6.268;2022-10-23T02:08:47;11.93;;;7.18;;
59659;SDS011;45534;52.690;6.268;2022-10-23T02:11:14;11.13;;;8.38;;
59659;SDS011;45534;52.690;6.268;2022-10-23T02:16:44;9.63;;;6.13;;
59659;SDS011;45534;52.690;6.268;2022-10-23T02:21:50;8.68;;;6.43;;
59659;SDS011;45534;52.690;6.268;2022-10-23T02:24:23;13.02;;;6.68;;
59659;SDS011;45534;52.690;6.268;2022-10-23T02:27:00;11.82;;;6.63;;
59659;SDS011;45534;52.690;6.268;2022-10-23T02:29:34;11.60;;;8.23;;
59659;SDS011;45534;52.690;6.268;2022-10-23T02:32:12;9.82;;;6.78;;
59659;SDS011;45534;52.690;6.268;2022-10-23T02:34:40;9.35;;;6.65;;
59659;SDS011;45534;52.690;6.268;2022-10-23T02:37:06;11.20;;;6.28;;
59659;SDS011;45534;52.690;6.268;2022-10-23T02:39:31;9.50;;;6.60;;
59659;SDS011;45534;52.690;6.268;2022-10-23T02:44:54;11.53;;;8.67;;
59659;SDS011;45534;52.690;6.268;2022-10-23T02:50:48;13.88;;;8.40;;
59659;SDS011;45534;52.690;6.268;2022-10-23T02:58:52;14.70;;;10.55;;
59659;SDS011;45534;52.690;6.268;2022-10-23T03:01:43;10.43;;;8.85;;
59659;SDS011;45534;52.690;6.268;2022-10-23T03:06:44;17.33;;;8.23;;
59659;SDS011;45534;52.690;6.268;2022-10-23T03:09:10;12.95;;;9.68;;
59659;SDS011;45534;52.690;6.268;2022-10-23T03:11:36;11.13;;;8.65;;
59659;SDS011;45534;52.690;6.268;2022-10-23T03:14:01;16.05;;;8.68;;
59659;SDS011;45534;52.690;6.268;2022-10-23T03:16:27;15.52;;;8.70;;
59659;SDS011;45534;52.690;6.268;2022-10-23T03:18:53;13.98;;;9.18;;
59659;SDS011;45534;52.690;6.268;2022-10-23T03:21:19;13.00;;;7.57;;
59659;SDS011;45534;52.690;6.268;2022-10-23T03:23:44;12.10;;;8.63;;
59659;SDS011;45534;52.690;6.268;2022-10-23T03:26:10;12.93;;;6.90;;
59659;SDS011;45534;52.690;6.268;2022-10-23T03:28:35;12.50;;;8.32;;
59659;SDS011;45534;52.690;6.268;2022-10-23T03:31:01;14.55;;;10.15;;
59659;SDS011;45534;52.690;6.268;2022-10-23T03:33:28;18.38;;;10.57;;
59659;SDS011;45534;52.690;6.268;2022-10-23T03:35:54;13.45;;;7.80;;
59659;SDS011;45534;52.690;6.268;2022-10-23T03:38:19;14.93;;;10.80;;
59659;SDS011;45534;52.690;6.268;2022-10-23T03:40:45;11.25;;;7.90;;
59659;SDS011;45534;52.690;6.268;2022-10-23T03:43:11;13.77;;;8.93;;
59659;SDS011;45534;52.690;6.268;2022-10-23T03:45:36;18.58;;;9.38;;
59659;SDS011;45534;52.690;6.268;2022-10-23T03:48:03;13.05;;;8.60;;
59659;SDS011;45534;52.690;6.268;2022-10-23T03:50:29;13.40;;;8.88;;
59659;SDS011;45534;52.690;6.268;2022-10-23T03:52:55;16.55;;;9.63;;
59659;SDS011;45534;52.690;6.268;2022-10-23T03:55:21;13.13;;;9.18;;
59659;SDS011;45534;52.690;6.268;2022-10-23T03:57:46;19.42;;;9.93;;
59659;SDS011;45534;52.690;6.268;2022-10-23T04:00:12;15.73;;;11.43;;
59659;SDS011;45534;52.690;6.268;2022-10-23T04:02:38;17.60;;;9.82;;
59659;SDS011;45534;52.690;6.268;2022-10-23T04:05:04;12.05;;;8.40;;
59659;SDS011;45534;52.690;6.268;2022-10-23T04:07:30;25.25;;;13.43;;
59659;SDS011;45534;52.690;6.268;2022-10-23T04:09:55;15.23;;;9.05;;
59659;SDS011;45534;52.690;6.268;2022-10-23T04:12:21;14.25;;;8.75;;
59659;SDS011;45534;52.690;6.268;2022-10-23T04:14:47;14.98;;;10.40;;
59659;SDS011;45534;52.690;6.268;2022-10-23T04:17:13;24.90;;;13.25;;
59659;SDS011;45534;52.690;6.268;2022-10-23T04:19:38;25.10;;;10.20;;
59659;SDS011;45534;52.690;6.268;2022-10-23T04:22:04;24.40;;;13.80;;
59659;SDS011;45534;52.690;6.268;2022-10-23T04:24:30;17.85;;;10.15;;
59659;SDS011;45534;52.690;6.268;2022-10-23T04:26:55;21.83;;;10.80;;
59659;SDS011;45534;52.690;6.268;2022-10-23T04:29:21;16.02;;;9.52;;
59659;SDS011;45534;52.690;6.268;2022-10-23T04:31:48;13.45;;;11.13;;
59659;SDS011;45534;52.690;6.268;2022-10-23T04:34:15;17.75;;;10.70;;
59659;SDS011;45534;52.690;6.268;2022-10-23T04:36:41;17.27;;;11.07;;
59659;SDS011;45534;52.690;6.268;2022-10-23T04:39:07;17.52;;;10.98;;
59659;SDS011;45534;52.690;6.268;2022-10-23T04:41:34;22.35;;;11.15;;
59659;SDS011;45534;52.690;6.268;2022-10-23T04:43:59;16.02;;;9.38;;
59659;SDS011;45534;52.690;6.268;2022-10-23T04:46:25;12.98;;;8.30;;
59659;SDS011;45534;52.690;6.268;2022-10-23T04:48:51;22.10;;;9.13;;
59659;SDS011;45534;52.690;6.268;2022-10-23T04:51:16;11.88;;;8.43;;
59659;SDS011;45534;52.690;6.268;2022-10-23T04:53:42;33.15;;;10.70;;
59659;SDS011;45534;52.690;6.268;2022-10-23T04:56:10;11.23;;;7.45;;
59659;SDS011;45534;52.690;6.268;2022-10-23T04:58:38;18.08;;;9.60;;
59659;SDS011;45534;52.690;6.268;2022-10-23T05:01:03;16.50;;;10.18;;
59659;SDS011;45534;52.690;6.268;2022-10-23T05:03:31;15.75;;;10.77;;
59659;SDS011;45534;52.690;6.268;2022-10-23T05:05:57;15.07;;;10.00;;
59659;SDS011;45534;52.690;6.268;2022-10-23T05:08:23;18.58;;;9.93;;
59659;SDS011;45534;52.690;6.268;2022-10-23T05:10:49;14.25;;;9.80;;
59659;SDS011;45534;52.690;6.268;2022-10-23T05:13:18;19.30;;;10.57;;
59659;SDS011;45534;52.690;6.268;2022-10-23T05:15:45;16.33;;;10.35;;
59659;SDS011;45534;52.690;6.268;2022-10-23T05:18:13;13.57;;;8.77;;
59659;SDS011;45534;52.690;6.268;2022-10-23T05:20:51;17.88;;;8.30;;
59659;SDS011;45534;52.690;6.268;2022-10-23T05:23:20;13.52;;;8.95;;
59659;SDS011;45534;52.690;6.268;2022-10-23T05:25:48;18.00;;;8.32;;
59659;SDS011;45534;52.690;6.268;2022-10-23T05:28:14;20.02;;;8.90;;
59659;SDS011;45534;52.690;6.268;2022-10-23T05:30:39;12.98;;;10.27;;
59659;SDS011;45534;52.690;6.268;2022-10-23T05:33:06;15.02;;;8.30;;
59659;SDS011;45534;52.690;6.268;2022-10-23T05:35:33;12.02;;;9.25;;
59659;SDS011;45534;52.690;6.268;2022-10-23T05:38:00;16.20;;;8.35;;
59659;SDS011;45534;52.690;6.268;2022-10-23T05:40:26;16.88;;;9.90;;
59659;SDS011;45534;52.690;6.268;2022-10-23T05:42:52;15.00;;;9.35;;
59659;SDS011;45534;52.690;6.268;2022-10-23T05:45:18;11.73;;;8.35;;
59659;SDS011;45534;52.690;6.268;2022-10-23T05:47:44;18.77;;;9.10;;
59659;SDS011;45534;52.690;6.268;2022-10-23T05:50:10;17.23;;;10.18;;
59659;SDS011;45534;52.690;6.268;2022-10-23T05:52:36;11.45;;;8.85;;
59659;SDS011;45534;52.690;6.268;2022-10-23T05:55:02;15.75;;;9.23;;
59659;SDS011;45534;52.690;6.268;2022-10-23T05:57:30;14.23;;;8.75;;
59659;SDS011;45534;52.690;6.268;2022-10-23T05:59:57;13.82;;;9.40;;
59659;SDS011;45534;52.690;6.268;2022-10-23T06:02:22;13.80;;;9.60;;
59659;SDS011;45534;52.690;6.268;2022-10-23T06:04:48;16.52;;;7.63;;
59659;SDS011;45534;52.690;6.268;2022-10-23T06:07:14;19.17;;;9.43;;
59659;SDS011;45534;52.690;6.268;2022-10-23T06:09:39;21.98;;;8.63;;
59659;SDS011;45534;52.690;6.268;2022-10-23T06:12:05;15.15;;;8.85;;
59659;SDS011;45534;52.690;6.268;2022-10-23T06:14:31;16.20;;;9.20;;
59659;SDS011;45534;52.690;6.268;2022-10-23T06:16:56;10.45;;;8.02;;
59659;SDS011;45534;52.690;6.268;2022-10-23T06:19:22;12.32;;;8.40;;
59659;SDS011;45534;52.690;6.268;2022-10-23T06:21:47;18.98;;;8.10;;
59659;SDS011;45534;52.690;6.268;2022-10-23T06:24:13;20.48;;;9.75;;
59659;SDS011;45534;52.690;6.268;2022-10-23T06:26:39;14.18;;;8.93;;
59659;SDS011;45534;52.690;6.268;2022-10-23T06:29:05;19.50;;;8.15;;
59659;SDS011;45534;52.690;6.268;2022-10-23T06:31:30;15.02;;;7.47;;
59659;SDS011;45534;52.690;6.268;2022-10-23T06:33:57;10.52;;;7.93;;
59659;SDS011;45534;52.690;6.268;2022-10-23T06:36:23;15.68;;;8.77;;
59659;SDS011;45534;52.690;6.268;2022-10-23T06:38:49;9.82;;;7.72;;
59659;SDS011;45534;52.690;6.268;2022-10-23T06:41:17;20.45;;;10.45;;
59659;SDS011;45534;52.690;6.268;2022-10-23T06:43:48;17.08;;;8.93;;
59659;SDS011;45534;52.690;6.268;2022-10-23T06:46:16;15.98;;;9.38;;
59659;SDS011;45534;52.690;6.268;2022-10-23T06:48:43;15.90;;;9.40;;
59659;SDS011;45534;52.690;6.268;2022-10-23T06:51:09;15.18;;;8.10;;
59659;SDS011;45534;52.690;6.268;2022-10-23T06:53:36;11.18;;;7.93;;
59659;SDS011;45534;52.690;6.268;2022-10-23T06:56:03;13.80;;;7.70;;
59659;SDS011;45534;52.690;6.268;2022-10-23T06:58:32;13.02;;;9.07;;
59659;SDS011;45534;52.690;6.268;2022-10-23T07:00:59;14.77;;;8.95;;
59659;SDS011;45534;52.690;6.268;2022-10-23T07:03:29;23.27;;;9.25;;
59659;SDS011;45534;52.690;6.268;2022-10-23T07:05:55;14.23;;;9.38;;
59659;SDS011;45534;52.690;6.268;2022-10-23T07:08:20;21.88;;;10.02;;
59659;SDS011;45534;52.690;6.268;2022-10-23T07:10:46;11.23;;;7.63;;
59659;SDS011;45534;52.690;6.268;2022-10-23T07:13:12;15.43;;;7.63;;
59659;SDS011;45534;52.690;6.268;2022-10-23T07:15:38;12.20;;;8.10;;
59659;SDS011;45534;52.690;6.268;2022-10-23T07:18:05;12.50;;;9.02;;
59659;SDS011;45534;52.690;6.268;2022-10-23T07:20:31;15.82;;;10.02;;
59659;SDS011;45534;52.690;6.268;2022-10-23T07:22:57;15.73;;;10.35;;
59659;SDS011;45534;52.690;6.268;2022-10-23T07:25:23;19.70;;;9.60;;
59659;SDS011;45534;52.690;6.268;2022-10-23T07:27:50;20.85;;;10.93;;
59659;SDS011;45534;52.690;6.268;2022-10-23T07:30:16;14.00;;;9.57;;
59659;SDS011;45534;52.690;6.268;2022-10-23T07:32:42;18.08;;;9.18;;
59659;SDS011;45534;52.690;6.268;2022-10-23T07:35:09;18.05;;;11.65;;
59659;SDS011;45534;52.690;6.268;2022-10-23T07:37:36;10.85;;;8.20;;
59659;SDS011;45534;52.690;6.268;2022-10-23T07:40:02;16.70;;;10.43;;
59659;SDS011;45534;52.690;6.268;2022-10-23T07:42:29;11.65;;;7.97;;
59659;SDS011;45534;52.690;6.268;2022-10-23T07:44:54;12.73;;;7.57;;
59659;SDS011;45534;52.690;6.268;2022-10-23T07:47:20;20.60;;;10.32;;
59659;SDS011;45534;52.690;6.268;2022-10-23T07:49:46;19.92;;;11.02;;
59659;SDS011;45534;52.690;6.268;2022-10-23T07:52:12;16.08;;;8.32;;
59659;SDS011;45534;52.690;6.268;2022-10-23T07:54:38;16.67;;;10.30;;
59659;SDS011;45534;52.690;6.268;2022-10-23T07:57:04;15.88;;;10.32;;
59659;SDS011;45534;52.690;6.268;2022-10-23T07:59:31;17.85;;;9.85;;
59659;SDS011;45534;52.690;6.268;2022-10-23T08:01:57;18.30;;;9.70;;
59659;SDS011;45534;52.690;6.268;2022-10-23T08:04:23;21.92;;;9.57;;
59659;SDS011;45534;52.690;6.268;2022-10-23T08:06:49;16.90;;;8.60;;
59659;SDS011;45534;52.690;6.268;2022-10-23T08:09:14;14.13;;;8.13;;
59659;SDS011;45534;52.690;6.268;2022-10-23T08:11:40;17.83;;;9.77;;
59659;SDS011;45534;52.690;6.268;2022-10-23T08:14:06;16.08;;;8.43;;
59659;SDS011;45534;52.690;6.268;2022-10-23T08:16:33;15.95;;;9.30;;
59659;SDS011;45534;52.690;6.268;2022-10-23T08:19:01;17.17;;;10.93;;
59659;SDS011;45534;52.690;6.268;2022-10-23T08:21:27;14.68;;;10.15;;
59659;SDS011;45534;52.690;6.268;2022-10-23T08:23:53;18.02;;;9.38;;
59659;SDS011;45534;52.690;6.268;2022-10-23T08:26:20;15.60;;;9.55;;
59659;SDS011;45534;52.690;6.268;2022-10-23T08:28:46;14.75;;;9.60;;
59659;SDS011;45534;52.690;6.268;2022-10-23T08:31:13;11.02;;;8.57;;
59659;SDS011;45534;52.690;6.268;2022-10-23T08:33:40;17.52;;;10.10;;
59659;SDS011;45534;52.690;6.268;2022-10-23T08:36:15;13.00;;;9.52;;
59659;SDS011;45534;52.690;6.268;2022-10-23T08:38:48;15.25;;;8.15;;
59659;SDS011;45534;52.690;6.268;2022-10-23T08:43:50;13.55;;;9.45;;
59659;SDS011;45534;52.690;6.268;2022-10-23T08:46:20;14.57;;;8.32;;
59659;SDS011;45534;52.690;6.268;2022-10-23T08:48:59;33.17;;;9.57;;
59659;SDS011;45534;52.690;6.268;2022-10-23T08:51:49;16.40;;;9.20;;
59659;SDS011;45534;52.690;6.268;2022-10-23T08:54:19;15.43;;;8.82;;
59659;SDS011;45534;52.690;6.268;2022-10-23T08:56:59;12.45;;;8.43;;
59659;SDS011;45534;52.690;6.268;2022-10-23T08:59:37;9.98;;;8.10;;
59659;SDS011;45534;52.690;6.268;2022-10-23T09:02:55;20.15;;;8.25;;
59659;SDS011;45534;52.690;6.268;2022-10-23T09:04:59;14.20;;;8.27;;
59659;SDS011;45534;52.690;6.268;2022-10-23T09:12:35;17.98;;;8.13;;
59659;SDS011;45534;52.690;6.268;2022-10-23T09:15:02;11.05;;;7.00;;
59659;SDS011;45534;52.690;6.268;2022-10-23T09:17:39;13.50;;;7.97;;
59659;SDS011;45534;52.690;6.268;2022-10-23T09:25:45;13.98;;;7.70;;
59659;SDS011;45534;52.690;6.268;2022-10-23T09:28:17;14.82;;;8.07;;
59659;SDS011;45534;52.690;6.268;2022-10-23T09:30:45;21.23;;;10.15;;
59659;SDS011;45534;52.690;6.268;2022-10-23T09:38:25;14.65;;;8.85;;
59659;SDS011;45534;52.690;6.268;2022-10-23T09:41:05;18.80;;;8.70;;
59659;SDS011;45534;52.690;6.268;2022-10-23T09:43:31;20.30;;;7.97;;
59659;SDS011;45534;52.690;6.268;2022-10-23T09:46:00;20.38;;;6.75;;
59659;SDS011;45534;52.690;6.268;2022-10-23T09:48:31;8.52;;;6.05;;
59659;SDS011;45534;52.690;6.268;2022-10-23T09:51:02;39.10;;;9.35;;
59659;SDS011;45534;52.690;6.268;2022-10-23T09:53:54;11.15;;;7.15;;
59659;SDS011;45534;52.690;6.268;2022-10-23T09:56:30;17.92;;;8.18;;
59659;SDS011;45534;52.690;6.268;2022-10-23T09:59:04;14.43;;;9.07;;
59659;SDS011;45534;52.690;6.268;2022-10-23T10:01:53;15.80;;;8.55;;
59659;SDS011;45534;52.690;6.268;2022-10-23T10:04:33;11.65;;;6.38;;
59659;SDS011;45534;52.690;6.268;2022-10-23T10:07:04;13.93;;;7.38;;
59659;SDS011;45534;52.690;6.268;2022-10-23T10:09:41;9.57;;;6.63;;
59659;SDS011;45534;52.690;6.268;2022-10-23T10:14:47;12.98;;;6.25;;
59659;SDS011;45534;52.690;6.268;2022-10-23T10:17:29;12.35;;;7.75;;
59659;SDS011;45534;52.690;6.268;2022-10-23T10:28:47;9.55;;;5.68;;
59659;SDS011;45534;52.690;6.268;2022-10-23T10:31:42;10.68;;;6.00;;
59659;SDS011;45534;52.690;6.268;2022-10-23T10:40:02;7.97;;;6.63;;
59659;SDS011;45534;52.690;6.268;2022-10-23T10:45:22;9.23;;;5.85;;
59659;SDS011;45534;52.690;6.268;2022-10-23T10:53:51;10.93;;;6.18;;
59659;SDS011;45534;52.690;6.268;2022-10-23T10:56:21;8.88;;;5.93;;
59659;SDS011;45534;52.690;6.268;2022-10-23T10:58:54;7.57;;;5.80;;
59659;SDS011;45534;52.690;6.268;2022-10-23T11:01:36;7.35;;;5.40;;
59659;SDS011;45534;52.690;6.268;2022-10-23T11:07:25;10.20;;;5.97;;
59659;SDS011;45534;52.690;6.268;2022-10-23T11:09:58;11.35;;;5.40;;
59659;SDS011;45534;52.690;6.268;2022-10-23T11:12:27;12.77;;;6.70;;
59659;SDS011;45534;52.690;6.268;2022-10-23T11:14:54;18.23;;;6.55;;
59659;SDS011;45534;52.690;6.268;2022-10-23T11:17:33;5.80;;;4.15;;
59659;SDS011;45534;52.690;6.268;2022-10-23T11:20:03;9.18;;;5.78;;
59659;SDS011;45534;52.690;6.268;2022-10-23T11:30:18;9.52;;;5.53;;
59659;SDS011;45534;52.690;6.268;2022-10-23T11:33:20;15.38;;;5.35;;
59659;SDS011;45534;52.690;6.268;2022-10-23T11:36:12;8.63;;;5.85;;
59659;SDS011;45534;52.690;6.268;2022-10-23T11:38:43;8.68;;;5.35;;
59659;SDS011;45534;52.690;6.268;2022-10-23T11:41:24;7.72;;;5.13;;
59659;SDS011;45534;52.690;6.268;2022-10-23T11:43:58;6.63;;;4.50;;
59659;SDS011;45534;52.690;6.268;2022-10-23T11:46:29;13.15;;;6.03;;
59659;SDS011;45534;52.690;6.268;2022-10-23T11:48:56;10.90;;;6.72;;
59659;SDS011;45534;52.690;6.268;2022-10-23T12:02:03;17.00;;;5.80;;
59659;SDS011;45534;52.690;6.268;2022-10-23T12:04:48;6.65;;;4.57;;
59659;SDS011;45534;52.690;6.268;2022-10-23T12:07:22;8.35;;;5.20;;
59659;SDS011;45534;52.690;6.268;2022-10-23T12:09:57;8.40;;;5.40;;
59659;SDS011;45534;52.690;6.268;2022-10-23T12:12:29;8.30;;;6.00;;
59659;SDS011;45534;52.690;6.268;2022-10-23T12:17:38;12.45;;;5.28;;
59659;SDS011;45534;52.690;6.268;2022-10-23T12:25:13;10.80;;;5.53;;
59659;SDS011;45534;52.690;6.268;2022-10-23T12:28:11;8.43;;;5.05;;
59659;SDS011;45534;52.690;6.268;2022-10-23T12:39:30;7.70;;;4.75;;
59659;SDS011;45534;52.690;6.268;2022-10-23T12:41:58;13.00;;;5.93;;
59659;SDS011;45534;52.690;6.268;2022-10-23T12:44:24;11.98;;;4.53;;
59659;SDS011;45534;52.690;6.268;2022-10-23T12:46:55;10.20;;;4.72;;
59659;SDS011;45534;52.690;6.268;2022-10-23T12:49:24;5.43;;;4.55;;
59659;SDS011;45534;52.690;6.268;2022-10-23T12:51:58;19.67;;;5.63;;
59659;SDS011;45534;52.690;6.268;2022-10-23T12:54:29;10.18;;;4.00;;
59659;SDS011;45534;52.690;6.268;2022-10-23T12:56:56;6.85;;;3.13;;
59659;SDS011;45534;52.690;6.268;2022-10-23T12:59:23;7.57;;;4.07;;
59659;SDS011;45534;52.690;6.268;2022-10-23T13:02:00;4.40;;;3.83;;
59659;SDS011;45534;52.690;6.268;2022-10-23T13:04:30;34.20;;;5.65;;
59659;SDS011;45534;52.690;6.268;2022-10-23T13:06:59;7.78;;;4.53;;
59659;SDS011;45534;52.690;6.268;2022-10-23T13:11:54;4.72;;;4.28;;
59659;SDS011;45534;52.690;6.268;2022-10-23T13:14:32;8.27;;;4.22;;
59659;SDS011;45534;52.690;6.268;2022-10-23T13:17:03;8.60;;;4.28;;
59659;SDS011;45534;52.690;6.268;2022-10-23T13:19:30;4.90;;;4.20;;
59659;SDS011;45534;52.690;6.268;2022-10-23T13:21:56;7.32;;;4.10;;
59659;SDS011;45534;52.690;6.268;2022-10-23T13:24:24;6.68;;;4.72;;
59659;SDS011;45534;52.690;6.268;2022-10-23T13:26:51;7.85;;;4.95;;
59659;SDS011;45534;52.690;6.268;2022-10-23T13:29:22;12.15;;;5.82;;
59659;SDS011;45534;52.690;6.268;2022-10-23T13:31:52;12.60;;;5.78;;
59659;SDS011;45534;52.690;6.268;2022-10-23T13:34:23;15.35;;;5.28;;
59659;SDS011;45534;52.690;6.268;2022-10-23T13:39:16;7.32;;;3.60;;
59659;SDS011;45534;52.690;6.268;2022-10-23T13:44:14;5.15;;;3.45;;
59659;SDS011;45534;52.690;6.268;2022-10-23T13:46:43;5.85;;;3.72;;
59659;SDS011;45534;52.690;6.268;2022-10-23T13:49:09;7.03;;;4.47;;
59659;SDS011;45534;52.690;6.268;2022-10-23T13:51:45;8.27;;;4.15;;
59659;SDS011;45534;52.690;6.268;2022-10-23T13:54:20;4.63;;;3.33;;
59659;SDS011;45534;52.690;6.268;2022-10-23T13:56:48;8.00;;;3.83;;
59659;SDS011;45534;52.690;6.268;2022-10-23T13:59:14;6.68;;;4.15;;
59659;SDS011;45534;52.690;6.268;2022-10-23T14:01:41;6.40;;;3.72;;
59659;SDS011;45534;52.690;6.268;2022-10-23T14:04:07;5.78;;;3.47;;
59659;SDS011;45534;52.690;6.268;2022-10-23T14:06:33;7.32;;;5.07;;
59659;SDS011;45534;52.690;6.268;2022-10-23T14:09:02;5.70;;;4.25;;
59659;SDS011;45534;52.690;6.268;2022-10-23T14:11:32;29.88;;;6.45;;
59659;SDS011;45534;52.690;6.268;2022-10-23T14:13:58;14.63;;;7.20;;
59659;SDS011;45534;52.690;6.268;2022-10-23T14:16:24;5.60;;;2.97;;
59659;SDS011;45534;52.690;6.268;2022-10-23T14:18:50;6.43;;;3.53;;
59659;SDS011;45534;52.690;6.268;2022-10-23T14:21:17;7.55;;;3.58;;
59659;SDS011;45534;52.690;6.268;2022-10-23T14:23:45;8.40;;;4.70;;
59659;SDS011;45534;52.690;6.268;2022-10-23T14:26:12;18.38;;;5.70;;
59659;SDS011;45534;52.690;6.268;2022-10-23T14:28:39;7.93;;;5.10;;
59659;SDS011;45534;52.690;6.268;2022-10-23T14:31:06;12.88;;;6.35;;
59659;SDS011;45534;52.690;6.268;2022-10-23T14:33:42;11.48;;;6.25;;
59659;SDS011;45534;52.690;6.268;2022-10-23T14:36:08;14.25;;;8.15;;
59659;SDS011;45534;52.690;6.268;2022-10-23T14:38:34;6.30;;;4.25;;
59659;SDS011;45534;52.690;6.268;2022-10-23T14:41:00;13.32;;;4.60;;
59659;SDS011;45534;52.690;6.268;2022-10-23T14:43:27;9.48;;;5.03;;
59659;SDS011;45534;52.690;6.268;2022-10-23T14:45:52;9.60;;;3.58;;
59659;SDS011;45534;52.690;6.268;2022-10-23T14:48:18;7.15;;;4.18;;
59659;SDS011;45534;52.690;6.268;2022-10-23T14:50:45;10.40;;;3.72;;
59659;SDS011;45534;52.690;6.268;2022-10-23T14:53:12;9.63;;;4.97;;
59659;SDS011;45534;52.690;6.268;2022-10-23T14:55:38;5.93;;;3.60;;
59659;SDS011;45534;52.690;6.268;2022-10-23T14:58:04;5.90;;;3.42;;
59659;SDS011;45534;52.690;6.268;2022-10-23T15:00:30;7.25;;;3.33;;
59659;SDS011;45534;52.690;6.268;2022-10-23T15:02:56;16.92;;;6.72;;
59659;SDS011;45534;52.690;6.268;2022-10-23T15:05:22;15.40;;;5.00;;
59659;SDS011;45534;52.690;6.268;2022-10-23T15:07:47;5.88;;;3.88;;
59659;SDS011;45534;52.690;6.268;2022-10-23T15:10:13;9.90;;;3.45;;
59659;SDS011;45534;52.690;6.268;2022-10-23T15:12:39;6.10;;;2.78;;
59659;SDS011;45534;52.690;6.268;2022-10-23T15:15:05;7.82;;;2.92;;
59659;SDS011;45534;52.690;6.268;2022-10-23T15:17:32;6.05;;;2.92;;
59659;SDS011;45534;52.690;6.268;2022-10-23T15:20:01;15.00;;;6.05;;
59659;SDS011;45534;52.690;6.268;2022-10-23T15:22:27;4.68;;;2.78;;
59659;SDS011;45534;52.690;6.268;2022-10-23T15:24:53;7.50;;;3.05;;
59659;SDS011;45534;52.690;6.268;2022-10-23T15:27:20;5.80;;;3.95;;
59659;SDS011;45534;52.690;6.268;2022-10-23T15:29:46;4.60;;;3.28;;
59659;SDS011;45534;52.690;6.268;2022-10-23T15:32:12;5.13;;;3.30;;
59659;SDS011;45534;52.690;6.268;2022-10-23T15:34:38;7.15;;;3.90;;
59659;SDS011;45534;52.690;6.268;2022-10-23T15:37:06;7.18;;;4.20;;
59659;SDS011;45534;52.690;6.268;2022-10-23T15:39:32;4.00;;;3.20;;
59659;SDS011;45534;52.690;6.268;2022-10-23T15:41:59;5.78;;;3.42;;
59659;SDS011;45534;52.690;6.268;2022-10-23T15:44:27;3.70;;;2.70;;
59659;SDS011;45534;52.690;6.268;2022-10-23T15:46:54;9.88;;;4.25;;
59659;SDS011;45534;52.690;6.268;2022-10-23T15:49:23;7.00;;;3.10;;
59659;SDS011;45534;52.690;6.268;2022-10-23T15:51:50;4.97;;;3.55;;
59659;SDS011;45534;52.690;6.268;2022-10-23T15:54:17;5.15;;;3.55;;
59659;SDS011;45534;52.690;6.268;2022-10-23T15:56:44;4.80;;;3.20;;
59659;SDS011;45534;52.690;6.268;2022-10-23T15:59:11;7.45;;;3.05;;
59659;SDS011;45534;52.690;6.268;2022-10-23T16:01:37;4.22;;;3.70;;
59659;SDS011;45534;52.690;6.268;2022-10-23T16:04:03;5.65;;;3.40;;
59659;SDS011;45534;52.690;6.268;2022-10-23T16:06:29;6.13;;;2.75;;
59659;SDS011;45534;52.690;6.268;2022-10-23T16:08:54;7.97;;;4.32;;
59659;SDS011;45534;52.690;6.268;2022-10-23T16:11:22;19.40;;;3.92;;
59659;SDS011;45534;52.690;6.268;2022-10-23T16:16:20;6.40;;;3.15;;
59659;SDS011;45534;52.690;6.268;2022-10-23T16:18:46;21.83;;;4.82;;
59659;SDS011;45534;52.690;6.268;2022-10-23T16:21:15;17.50;;;4.20;;
59659;SDS011;45534;52.690;6.268;2022-10-23T16:23:48;13.07;;;4.65;;
59659;SDS011;45534;52.690;6.268;2022-10-23T16:26:15;10.20;;;3.50;;
59659;SDS011;45534;52.690;6.268;2022-10-23T16:28:41;6.75;;;3.25;;
59659;SDS011;45534;52.690;6.268;2022-10-23T16:31:09;7.30;;;3.22;;
59659;SDS011;45534;52.690;6.268;2022-10-23T16:33:36;16.20;;;3.92;;
59659;SDS011;45534;52.690;6.268;2022-10-23T16:36:03;11.63;;;4.80;;
59659;SDS011;45534;52.690;6.268;2022-10-23T16:38:30;6.13;;;3.80;;
59659;SDS011;45534;52.690;6.268;2022-10-23T16:40:56;5.05;;;2.85;;
59659;SDS011;45534;52.690;6.268;2022-10-23T16:43:21;11.18;;;3.85;;
59659;SDS011;45534;52.690;6.268;2022-10-23T16:45:47;6.47;;;3.53;;
59659;SDS011;45534;52.690;6.268;2022-10-23T16:48:13;6.45;;;4.13;;
59659;SDS011;45534;52.690;6.268;2022-10-23T16:50:39;10.70;;;4.65;;
59659;SDS011;45534;52.690;6.268;2022-10-23T16:53:05;8.20;;;3.45;;
59659;SDS011;45534;52.690;6.268;2022-10-23T16:55:31;6.25;;;3.22;;
59659;SDS011;45534;52.690;6.268;2022-10-23T16:57:57;4.38;;;3.47;;
59659;SDS011;45534;52.690;6.268;2022-10-23T17:00:24;4.45;;;3.80;;
59659;SDS011;45534;52.690;6.268;2022-10-23T17:02:58;7.78;;;3.58;;
59659;SDS011;45534;52.690;6.268;2022-10-23T17:05:31;4.93;;;3.28;;
59659;SDS011;45534;52.690;6.268;2022-10-23T17:07:58;5.13;;;4.18;;